sensor_id;sensor_type;location;lat;lon;timestamp;pressure;altitude;pressure_sealevel;temperature;humidity
3812;BME280;1921;49.368;11.068;2022-11-21T00:00:54;96679.00;;;5.06;100.00
3812;BME280;1921;49.368;11.068;2022-11-21T00:03:20;96662.41;;;4.93;100.00
3812;BME280;1921;49.368;11.068;2022-11-21T00:05:48;96705.31;;;5.18;100.00
3812;BME280;1921;49.368;11.068;2022-11-21T00:08:19;96615.84;;;4.53;100.00
3812;BME280;1921;49.368;11.068;2022-11-21T00:10:46;96686.59;;;5.08;100.00
3812;BME280;1921;49.368;11.068;2022-11-21T00:13:21;96655.13;;;4.96;100.00
3812;BME280;1921;49.368;11.068;2022-11-21T00:15:47;96692.53;;;5.25;100.00
3812;BME280;1921;49.368;11.068;2022-11-21T00:18:15;96677.72;;;5.10;100.00
3812;BME280;1921;49.368;11.068;2022-11-21T00:20:42;96575.19;;;4.55;100.00
3812;BME280;1921;49.368;11.068;2022-11-21T00:23:08;96674.25;;;5.26;100.00
3812;BME280;1921;49.368;11.068;2022-11-21T00:25:34;96673.94;;;5.21;100.00
3812;BME280;1921;49.368;11.068;2022-11-21T00:28:00;96551.94;;;4.55;100.00
3812;BME280;1921;49.368;11.068;2022-11-21T00:30:26;96694.00;;;5.58;100.00
3812;BME280;1921;49.368;11.068;2022-11-21T00:32:51;96656.28;;;5.41;100.00
3812;BME280;1921;49.368;11.068;2022-11-21T00:35:17;96653.88;;;5.31;100.00
3812;BME280;1921;49.368;11.068;2022-11-21T00:37:43;96658.06;;;5.32;100.00
3812;BME280;1921;49.368;11.068;2022-11-21T00:40:10;96693.59;;;5.38;100.00
3812;BME280;1921;49.368;11.068;2022-11-21T00:42:35;96643.78;;;5.13;100.00
3812;BME280;1921;49.368;11.068;2022-11-21T00:45:02;96673.28;;;5.35;100.00
3812;BME280;1921;49.368;11.068;2022-11-21T00:47:28;96640.34;;;5.21;100.00
3812;BME280;1921;49.368;11.068;2022-11-21T00:49:53;96629.88;;;5.14;100.00
3812;BME280;1921;49.368;11.068;2022-11-21T00:52:19;96640.47;;;5.28;100.00
3812;BME280;1921;49.368;11.068;2022-11-21T00:54:45;96636.78;;;5.30;100.00
3812;BME280;1921;49.368;11.068;2022-11-21T00:57:11;96638.50;;;5.38;100.00
3812;BME280;1921;49.368;11.068;2022-11-21T00:59:36;96658.59;;;5.59;100.00
3812;BME280;1921;49.368;11.068;2022-11-21T01:02:02;96640.78;;;5.33;100.00
3812;BME280;1921;49.368;11.068;2022-11-21T01:04:31;96614.34;;;5.23;100.00
3812;BME280;1921;49.368;11.068;2022-11-21T01:06:57;96661.22;;;5.51;100.00
3812;BME280;1921;49.368;11.068;2022-11-21T01:09:23;96623.66;;;5.32;100.00
3812;BME280;1921;49.368;11.068;2022-11-21T01:11:48;96642.38;;;5.42;100.00
3812;BME280;1921;49.368;11.068;2022-11-21T01:14:14;96640.59;;;5.43;100.00
3812;BME280;1921;49.368;11.068;2022-11-21T01:16:40;96626.56;;;5.37;100.00
3812;BME280;1921;49.368;11.068;2022-11-21T01:19:06;96664.31;;;5.54;100.00
3812;BME280;1921;49.368;11.068;2022-11-21T01:21:32;96584.00;;;5.17;100.00
3812;BME280;1921;49.368;11.068;2022-11-21T01:23:59;96638.31;;;5.48;100.00
3812;BME280;1921;49.368;11.068;2022-11-21T01:26:28;96633.28;;;5.46;100.00
3812;BME280;1921;49.368;11.068;2022-11-21T01:28:54;96580.94;;;5.13;100.00
3812;BME280;1921;49.368;11.068;2022-11-21T01:31:24;96633.97;;;5.40;100.00
3812;BME280;1921;49.368;11.068;2022-11-21T01:33:51;96645.16;;;5.72;100.00
3812;BME280;1921;49.368;11.068;2022-11-21T01:38:54;96645.59;;;5.75;100.00
3812;BME280;1921;49.368;11.068;2022-11-21T01:41:27;96617.50;;;5.41;100.00
3812;BME280;1921;49.368;11.068;2022-11-21T01:43:56;96648.56;;;5.64;100.00
3812;BME280;1921;49.368;11.068;2022-11-21T01:46:23;96609.75;;;5.41;100.00
3812;BME280;1921;49.368;11.068;2022-11-21T01:49:28;96624.22;;;5.50;100.00
3812;BME280;1921;49.368;11.068;2022-11-21T01:52:11;96660.44;;;5.81;100.00
3812;BME280;1921;49.368;11.068;2022-11-21T01:55:03;96645.16;;;5.72;100.00
3812;BME280;1921;49.368;11.068;2022-11-21T01:57:40;96660.09;;;5.84;100.00
3812;BME280;1921;49.368;11.068;2022-11-21T02:00:22;96656.34;;;5.87;100.00
3812;BME280;1921;49.368;11.068;2022-11-21T02:02:54;96619.97;;;5.57;100.00
3812;BME280;1921;49.368;11.068;2022-11-21T02:05:26;96619.31;;;5.63;100.00
3812;BME280;1921;49.368;11.068;2022-11-21T02:07:56;96643.31;;;5.80;100.00
3812;BME280;1921;49.368;11.068;2022-11-21T02:10:23;96632.72;;;5.67;100.00
3812;BME280;1921;49.368;11.068;2022-11-21T02:12:52;96612.19;;;5.65;100.00
3812;BME280;1921;49.368;11.068;2022-11-21T02:15:21;96648.59;;;5.87;100.00
3812;BME280;1921;49.368;11.068;2022-11-21T02:17:47;96606.38;;;5.63;100.00
3812;BME280;1921;49.368;11.068;2022-11-21T02:20:16;96633.63;;;5.74;100.00
3812;BME280;1921;49.368;11.068;2022-11-21T02:22:54;96655.19;;;5.89;100.00
3812;BME280;1921;49.368;11.068;2022-11-21T02:25:30;96609.03;;;5.55;100.00
3812;BME280;1921;49.368;11.068;2022-11-21T02:28:07;96655.88;;;5.83;100.00
3812;BME280;1921;49.368;11.068;2022-11-21T02:30:37;96551.09;;;5.10;100.00
3812;BME280;1921;49.368;11.068;2022-11-21T02:33:04;96611.25;;;5.58;100.00
3812;BME280;1921;49.368;11.068;2022-11-21T02:35:30;96646.63;;;5.89;100.00
3812;BME280;1921;49.368;11.068;2022-11-21T02:38:16;96618.75;;;5.76;100.00
3812;BME280;1921;49.368;11.068;2022-11-21T02:41:11;96604.88;;;5.69;100.00
3812;BME280;1921;49.368;11.068;2022-11-21T02:44:12;96619.91;;;5.74;100.00
3812;BME280;1921;49.368;11.068;2022-11-21T02:46:51;96612.66;;;5.69;100.00
3812;BME280;1921;49.368;11.068;2022-11-21T02:49:29;96614.72;;;5.74;100.00
3812;BME280;1921;49.368;11.068;2022-11-21T02:51:58;96579.34;;;5.43;100.00
3812;BME280;1921;49.368;11.068;2022-11-21T02:54:24;96596.53;;;5.59;100.00
3812;BME280;1921;49.368;11.068;2022-11-21T02:56:49;96604.03;;;5.54;100.00
3812;BME280;1921;49.368;11.068;2022-11-21T02:59:15;96604.47;;;5.57;100.00
3812;BME280;1921;49.368;11.068;2022-11-21T03:01:41;96628.09;;;5.54;100.00
3812;BME280;1921;49.368;11.068;2022-11-21T03:04:06;96601.69;;;5.36;100.00
3812;BME280;1921;49.368;11.068;2022-11-21T03:06:32;96565.13;;;5.16;100.00
3812;BME280;1921;49.368;11.068;2022-11-21T03:08:58;96580.66;;;5.39;100.00
3812;BME280;1921;49.368;11.068;2022-11-21T03:11:23;96593.28;;;5.34;100.00
3812;BME280;1921;49.368;11.068;2022-11-21T03:13:49;96646.78;;;5.64;100.00
3812;BME280;1921;49.368;11.068;2022-11-21T03:16:15;96558.31;;;5.15;100.00
3812;BME280;1921;49.368;11.068;2022-11-21T03:18:40;96589.44;;;5.30;100.00
3812;BME280;1921;49.368;11.068;2022-11-21T03:21:06;96624.06;;;5.52;100.00
3812;BME280;1921;49.368;11.068;2022-11-21T03:23:32;96581.22;;;5.26;100.00
3812;BME280;1921;49.368;11.068;2022-11-21T03:25:58;96609.09;;;5.39;100.00
3812;BME280;1921;49.368;11.068;2022-11-21T03:28:24;96593.00;;;5.29;100.00
3812;BME280;1921;49.368;11.068;2022-11-21T03:30:50;96599.72;;;5.38;100.00
3812;BME280;1921;49.368;11.068;2022-11-21T03:33:16;96577.50;;;5.21;100.00
3812;BME280;1921;49.368;11.068;2022-11-21T03:35:41;96602.38;;;5.30;100.00
3812;BME280;1921;49.368;11.068;2022-11-21T03:38:07;96557.25;;;5.01;100.00
3812;BME280;1921;49.368;11.068;2022-11-21T03:40:33;96553.06;;;5.00;100.00
3812;BME280;1921;49.368;11.068;2022-11-21T03:43:04;96591.09;;;5.23;100.00
3812;BME280;1921;49.368;11.068;2022-11-21T03:45:30;96601.00;;;5.42;100.00
3812;BME280;1921;49.368;11.068;2022-11-21T03:47:56;96596.16;;;5.39;100.00
3812;BME280;1921;49.368;11.068;2022-11-21T03:50:22;96618.88;;;5.52;100.00
3812;BME280;1921;49.368;11.068;2022-11-21T03:52:47;96597.63;;;5.42;100.00
3812;BME280;1921;49.368;11.068;2022-11-21T03:55:13;96582.75;;;5.44;100.00
3812;BME280;1921;49.368;11.068;2022-11-21T03:57:39;96568.88;;;5.36;100.00
3812;BME280;1921;49.368;11.068;2022-11-21T04:00:06;96538.44;;;5.24;100.00
3812;BME280;1921;49.368;11.068;2022-11-21T04:02:32;96570.50;;;5.37;100.00
3812;BME280;1921;49.368;11.068;2022-11-21T04:04:57;96594.00;;;5.51;100.00
3812;BME280;1921;49.368;11.068;2022-11-21T04:07:23;96585.81;;;5.47;100.00
3812;BME280;1921;49.368;11.068;2022-11-21T04:09:49;96591.13;;;5.46;100.00
3812;BME280;1921;49.368;11.068;2022-11-21T04:12:15;96575.16;;;5.42;100.00
3812;BME280;1921;49.368;11.068;2022-11-21T04:14:40;96567.59;;;5.32;100.00
3812;BME280;1921;49.368;11.068;2022-11-21T04:17:06;96584.16;;;5.46;100.00
3812;BME280;1921;49.368;11.068;2022-11-21T04:19:32;96581.63;;;5.38;100.00
3812;BME280;1921;49.368;11.068;2022-11-21T04:21:57;96504.34;;;4.89;100.00
3812;BME280;1921;49.368;11.068;2022-11-21T04:24:23;96571.34;;;5.30;100.00
3812;BME280;1921;49.368;11.068;2022-11-21T04:26:49;96565.38;;;5.29;100.00
3812;BME280;1921;49.368;11.068;2022-11-21T04:29:14;96533.00;;;5.10;100.00
3812;BME280;1921;49.368;11.068;2022-11-21T04:31:41;96594.34;;;5.48;100.00
3812;BME280;1921;49.368;11.068;2022-11-21T04:34:07;96551.78;;;5.35;100.00
3812;BME280;1921;49.368;11.068;2022-11-21T04:36:33;96560.78;;;5.39;100.00
3812;BME280;1921;49.368;11.068;2022-11-21T04:38:58;96584.44;;;5.59;100.00
3812;BME280;1921;49.368;11.068;2022-11-21T04:41:24;96557.06;;;5.42;100.00
3812;BME280;1921;49.368;11.068;2022-11-21T04:43:50;96571.66;;;5.58;100.00
3812;BME280;1921;49.368;11.068;2022-11-21T04:46:15;96540.34;;;5.30;100.00
3812;BME280;1921;49.368;11.068;2022-11-21T04:48:41;96575.03;;;5.58;100.00
3812;BME280;1921;49.368;11.068;2022-11-21T04:51:07;96582.28;;;5.63;100.00
3812;BME280;1921;49.368;11.068;2022-11-21T04:53:32;96545.38;;;5.46;100.00
3812;BME280;1921;49.368;11.068;2022-11-21T04:56:02;96566.78;;;5.63;100.00
3812;BME280;1921;49.368;11.068;2022-11-21T04:58:27;96580.00;;;5.68;100.00
3812;BME280;1921;49.368;11.068;2022-11-21T05:00:53;96574.59;;;5.55;100.00
3812;BME280;1921;49.368;11.068;2022-11-21T05:03:19;96579.28;;;5.51;100.00
3812;BME280;1921;49.368;11.068;2022-11-21T05:05:45;96617.91;;;5.84;100.00
3812;BME280;1921;49.368;11.068;2022-11-21T05:08:11;96588.78;;;5.59;100.00
3812;BME280;1921;49.368;11.068;2022-11-21T05:10:36;96609.63;;;5.65;100.00
3812;BME280;1921;49.368;11.068;2022-11-21T05:13:22;96563.44;;;5.54;100.00
3812;BME280;1921;49.368;11.068;2022-11-21T05:15:48;96571.78;;;5.42;100.00
3812;BME280;1921;49.368;11.068;2022-11-21T05:18:17;96518.06;;;5.21;100.00
3812;BME280;1921;49.368;11.068;2022-11-21T05:20:44;96585.69;;;5.63;100.00
3812;BME280;1921;49.368;11.068;2022-11-21T05:23:09;96570.31;;;5.39;100.00
3812;BME280;1921;49.368;11.068;2022-11-21T05:25:35;96562.66;;;5.23;100.00
3812;BME280;1921;49.368;11.068;2022-11-21T05:28:01;96566.75;;;5.09;100.00
3812;BME280;1921;49.368;11.068;2022-11-21T05:30:27;96551.97;;;4.95;100.00
3812;BME280;1921;49.368;11.068;2022-11-21T05:32:52;96574.72;;;4.99;100.00
3812;BME280;1921;49.368;11.068;2022-11-21T05:35:18;96558.16;;;4.77;100.00
3812;BME280;1921;49.368;11.068;2022-11-21T05:37:44;96565.53;;;4.89;100.00
3812;BME280;1921;49.368;11.068;2022-11-21T05:40:10;96599.75;;;4.99;100.00
3812;BME280;1921;49.368;11.068;2022-11-21T05:42:41;96521.59;;;4.57;100.00
3812;BME280;1921;49.368;11.068;2022-11-21T05:45:25;96567.00;;;4.83;100.00
3812;BME280;1921;49.368;11.068;2022-11-21T05:47:51;96567.88;;;4.67;100.00
3812;BME280;1921;49.368;11.068;2022-11-21T05:50:17;96555.19;;;4.49;100.00
3812;BME280;1921;49.368;11.068;2022-11-21T05:52:43;96562.13;;;4.49;100.00
3812;BME280;1921;49.368;11.068;2022-11-21T05:55:10;96591.31;;;4.57;100.00
3812;BME280;1921;49.368;11.068;2022-11-21T05:57:35;96583.44;;;4.43;100.00
3812;BME280;1921;49.368;11.068;2022-11-21T06:00:02;96564.41;;;4.27;100.00
3812;BME280;1921;49.368;11.068;2022-11-21T06:02:27;96543.00;;;4.11;100.00
3812;BME280;1921;49.368;11.068;2022-11-21T06:05:11;96582.00;;;4.24;100.00
3812;BME280;1921;49.368;11.068;2022-11-21T06:07:37;96602.47;;;4.33;100.00
3812;BME280;1921;49.368;11.068;2022-11-21T06:10:04;96581.34;;;4.22;100.00
3812;BME280;1921;49.368;11.068;2022-11-21T06:12:30;96562.81;;;4.18;100.00
3812;BME280;1921;49.368;11.068;2022-11-21T06:14:56;96585.88;;;4.36;100.00
3812;BME280;1921;49.368;11.068;2022-11-21T06:17:22;96586.19;;;4.41;100.00
3812;BME280;1921;49.368;11.068;2022-11-21T06:19:47;96564.09;;;4.30;100.00
3812;BME280;1921;49.368;11.068;2022-11-21T06:22:13;96597.13;;;4.51;100.00
3812;BME280;1921;49.368;11.068;2022-11-21T06:24:39;96589.53;;;4.50;100.00
3812;BME280;1921;49.368;11.068;2022-11-21T06:27:04;96570.69;;;4.41;100.00
3812;BME280;1921;49.368;11.068;2022-11-21T06:29:30;96630.97;;;4.73;100.00
3812;BME280;1921;49.368;11.068;2022-11-21T06:31:56;96636.16;;;4.73;100.00
3812;BME280;1921;49.368;11.068;2022-11-21T06:34:22;96614.72;;;4.56;100.00
3812;BME280;1921;49.368;11.068;2022-11-21T06:36:49;96634.38;;;4.73;100.00
3812;BME280;1921;49.368;11.068;2022-11-21T06:39:15;96626.28;;;4.76;100.00
3812;BME280;1921;49.368;11.068;2022-11-21T06:41:41;96586.63;;;4.61;100.00
3812;BME280;1921;49.368;11.068;2022-11-21T06:44:07;96611.13;;;4.73;100.00
3812;BME280;1921;49.368;11.068;2022-11-21T06:46:33;96628.50;;;4.88;100.00
3812;BME280;1921;49.368;11.068;2022-11-21T06:48:58;96615.28;;;4.82;100.00
3812;BME280;1921;49.368;11.068;2022-11-21T06:51:24;96580.66;;;4.61;100.00
3812;BME280;1921;49.368;11.068;2022-11-21T06:53:56;96582.56;;;4.58;100.00
3812;BME280;1921;49.368;11.068;2022-11-21T06:56:24;96590.19;;;4.60;100.00
3812;BME280;1921;49.368;11.068;2022-11-21T06:58:50;96612.72;;;4.74;100.00
3812;BME280;1921;49.368;11.068;2022-11-21T07:01:16;96627.56;;;4.80;100.00
3812;BME280;1921;49.368;11.068;2022-11-21T07:03:41;96567.16;;;4.42;100.00
3812;BME280;1921;49.368;11.068;2022-11-21T07:06:07;96605.19;;;4.56;100.00
3812;BME280;1921;49.368;11.068;2022-11-21T07:08:34;96598.44;;;4.47;100.00
3812;BME280;1921;49.368;11.068;2022-11-21T07:11:03;96599.91;;;4.42;100.00
3812;BME280;1921;49.368;11.068;2022-11-21T07:13:29;96594.56;;;4.43;100.00
3812;BME280;1921;49.368;11.068;2022-11-21T07:16:07;96584.56;;;4.40;100.00
3812;BME280;1921;49.368;11.068;2022-11-21T07:18:33;96620.34;;;4.68;100.00
3812;BME280;1921;49.368;11.068;2022-11-21T07:21:04;96615.16;;;4.68;100.00
3812;BME280;1921;49.368;11.068;2022-11-21T07:23:32;96613.38;;;4.84;100.00
3812;BME280;1921;49.368;11.068;2022-11-21T07:26:06;96598.94;;;4.98;100.00
3812;BME280;1921;49.368;11.068;2022-11-21T07:28:33;96626.59;;;5.29;100.00
3812;BME280;1921;49.368;11.068;2022-11-21T07:31:00;96610.56;;;5.33;100.00
3812;BME280;1921;49.368;11.068;2022-11-21T07:33:26;96606.88;;;5.36;100.00
3812;BME280;1921;49.368;11.068;2022-11-21T07:35:55;96611.13;;;5.52;100.00
3812;BME280;1921;49.368;11.068;2022-11-21T07:38:22;96592.06;;;5.53;100.00
3812;BME280;1921;49.368;11.068;2022-11-21T07:40:48;96603.09;;;5.47;100.00
3812;BME280;1921;49.368;11.068;2022-11-21T07:43:15;96597.69;;;5.56;100.00
3812;BME280;1921;49.368;11.068;2022-11-21T07:45:41;96605.25;;;5.66;100.00
3812;BME280;1921;49.368;11.068;2022-11-21T07:48:07;96586.66;;;5.62;100.00
3812;BME280;1921;49.368;11.068;2022-11-21T07:50:33;96625.19;;;5.80;100.00
3812;BME280;1921;49.368;11.068;2022-11-21T07:53:01;96633.22;;;5.93;100.00
3812;BME280;1921;49.368;11.068;2022-11-21T07:55:28;96628.78;;;6.02;99.48
3812;BME280;1921;49.368;11.068;2022-11-21T07:58:09;96590.88;;;5.86;100.00
3812;BME280;1921;49.368;11.068;2022-11-21T08:00:38;96608.94;;;5.94;99.49
3812;BME280;1921;49.368;11.068;2022-11-21T08:03:04;96605.75;;;5.92;100.00
3812;BME280;1921;49.368;11.068;2022-11-21T08:05:36;96590.66;;;5.96;99.17
3812;BME280;1921;49.368;11.068;2022-11-21T08:08:02;96617.31;;;6.05;99.69
3812;BME280;1921;49.368;11.068;2022-11-21T08:10:27;96592.44;;;5.96;98.79
3812;BME280;1921;49.368;11.068;2022-11-21T08:12:53;96612.63;;;6.00;98.80
3812;BME280;1921;49.368;11.068;2022-11-21T08:15:24;96642.00;;;6.30;98.94
3812;BME280;1921;49.368;11.068;2022-11-21T08:17:50;96626.75;;;6.35;98.77
3812;BME280;1921;49.368;11.068;2022-11-21T08:20:15;96618.41;;;6.48;98.30
3812;BME280;1921;49.368;11.068;2022-11-21T08:22:42;96567.16;;;6.20;97.88
3812;BME280;1921;49.368;11.068;2022-11-21T08:25:09;96622.63;;;6.79;97.36
3812;BME280;1921;49.368;11.068;2022-11-21T08:27:39;96587.06;;;6.87;95.83
3812;BME280;1921;49.368;11.068;2022-11-21T08:30:07;96662.38;;;7.60;94.70
3812;BME280;1921;49.368;11.068;2022-11-21T08:32:33;96606.16;;;7.45;93.12
3812;BME280;1921;49.368;11.068;2022-11-21T08:34:59;96623.53;;;7.66;92.14
3812;BME280;1921;49.368;11.068;2022-11-21T08:37:27;96600.63;;;7.34;91.55
3812;BME280;1921;49.368;11.068;2022-11-21T08:39:54;96601.97;;;7.29;90.49
3812;BME280;1921;49.368;11.068;2022-11-21T08:42:20;96607.66;;;7.54;90.45
3812;BME280;1921;49.368;11.068;2022-11-21T08:44:45;96618.81;;;7.91;89.19
3812;BME280;1921;49.368;11.068;2022-11-21T08:47:11;96624.25;;;8.18;89.16
3812;BME280;1921;49.368;11.068;2022-11-21T08:49:37;96591.78;;;8.07;86.85
3812;BME280;1921;49.368;11.068;2022-11-21T08:52:03;96611.25;;;8.18;85.72
3812;BME280;1921;49.368;11.068;2022-11-21T08:54:28;96656.41;;;8.17;87.65
3812;BME280;1921;49.368;11.068;2022-11-21T08:56:54;96656.59;;;8.15;86.53
3812;BME280;1921;49.368;11.068;2022-11-21T08:59:20;96664.81;;;8.19;86.49
3812;BME280;1921;49.368;11.068;2022-11-21T09:01:46;96643.50;;;8.02;86.32
3812;BME280;1921;49.368;11.068;2022-11-21T09:04:12;96626.31;;;7.65;87.83
3812;BME280;1921;49.368;11.068;2022-11-21T09:06:38;96623.84;;;7.42;89.71
3812;BME280;1921;49.368;11.068;2022-11-21T09:09:05;96575.63;;;7.11;90.91
3812;BME280;1921;49.368;11.068;2022-11-21T09:11:31;96609.03;;;7.36;89.63
3812;BME280;1921;49.368;11.068;2022-11-21T09:13:58;96654.53;;;7.53;90.86
3812;BME280;1921;49.368;11.068;2022-11-21T09:16:43;96636.09;;;7.48;90.70
3812;BME280;1921;49.368;11.068;2022-11-21T09:19:27;96591.78;;;7.28;90.29
3812;BME280;1921;49.368;11.068;2022-11-21T09:21:53;96619.75;;;7.47;91.69
3812;BME280;1921;49.368;11.068;2022-11-21T09:24:19;96645.16;;;8.09;88.51
3812;BME280;1921;49.368;11.068;2022-11-21T09:26:45;96593.56;;;8.28;84.79
3812;BME280;1921;49.368;11.068;2022-11-21T09:29:11;96646.94;;;9.08;80.68
3812;BME280;1921;49.368;11.068;2022-11-21T09:31:43;96643.75;;;9.54;80.73
3812;BME280;1921;49.368;11.068;2022-11-21T09:34:09;96623.88;;;10.01;77.64
3812;BME280;1921;49.368;11.068;2022-11-21T09:36:35;96624.13;;;10.59;74.25
3812;BME280;1921;49.368;11.068;2022-11-21T09:39:01;96640.88;;;11.22;71.04
3812;BME280;1921;49.368;11.068;2022-11-21T09:41:48;96616.16;;;11.38;69.30
3812;BME280;1921;49.368;11.068;2022-11-21T09:45:04;96655.91;;;12.30;65.53
3812;BME280;1921;49.368;11.068;2022-11-21T09:47:40;96602.84;;;11.91;66.10
3812;BME280;1921;49.368;11.068;2022-11-21T09:58:05;96631.25;;;9.84;73.00
3812;BME280;1921;49.368;11.068;2022-11-21T10:00:34;96626.69;;;9.38;77.34
3812;BME280;1921;49.368;11.068;2022-11-21T10:03:01;96618.44;;;9.89;75.49
3812;BME280;1921;49.368;11.068;2022-11-21T10:06:18;96639.97;;;10.77;70.42
3812;BME280;1921;49.368;11.068;2022-11-21T10:09:04;96665.03;;;10.71;72.03
3812;BME280;1921;49.368;11.068;2022-11-21T10:15:18;96650.31;;;10.11;72.87
3812;BME280;1921;49.368;11.068;2022-11-21T10:27:02;96648.00;;;10.56;74.69
3812;BME280;1921;49.368;11.068;2022-11-21T10:29:50;96612.31;;;10.30;74.45
3812;BME280;1921;49.368;11.068;2022-11-21T10:32:52;96629.94;;;10.34;73.94
3812;BME280;1921;49.368;11.068;2022-11-21T10:35:35;96603.69;;;10.36;74.93
3812;BME280;1921;49.368;11.068;2022-11-21T10:38:22;96615.31;;;10.33;75.69
3812;BME280;1921;49.368;11.068;2022-11-21T10:44:24;96646.88;;;9.84;81.71
3812;BME280;1921;49.368;11.068;2022-11-21T10:47:26;96599.06;;;8.96;83.92
3812;BME280;1921;49.368;11.068;2022-11-21T10:50:01;96650.84;;;8.90;86.69
3812;BME280;1921;49.368;11.068;2022-11-21T10:53:18;96627.28;;;8.21;89.39
3812;BME280;1921;49.368;11.068;2022-11-21T10:55:19;96601.53;;;7.62;90.52
3812;BME280;1921;49.368;11.068;2022-11-21T10:57:47;96595.63;;;7.17;92.37
3812;BME280;1921;49.368;11.068;2022-11-21T11:00:21;96666.34;;;7.41;94.40
3812;BME280;1921;49.368;11.068;2022-11-21T11:03:20;96592.13;;;6.51;97.36
3812;BME280;1921;49.368;11.068;2022-11-21T11:05:55;96579.28;;;6.05;100.00
3812;BME280;1921;49.368;11.068;2022-11-21T11:08:24;96600.66;;;6.22;100.00
3812;BME280;1921;49.368;11.068;2022-11-21T11:11:21;96604.25;;;6.36;100.00
3812;BME280;1921;49.368;11.068;2022-11-21T11:14:04;96605.72;;;6.53;100.00
3812;BME280;1921;49.368;11.068;2022-11-21T11:16:34;96614.69;;;6.65;100.00
3812;BME280;1921;49.368;11.068;2022-11-21T11:19:29;96576.22;;;6.39;100.00
3812;BME280;1921;49.368;11.068;2022-11-21T11:21:55;96616.78;;;6.47;100.00
3812;BME280;1921;49.368;11.068;2022-11-21T11:24:24;96613.41;;;6.61;100.00
3812;BME280;1921;49.368;11.068;2022-11-21T11:26:59;96618.34;;;6.71;100.00
3812;BME280;1921;49.368;11.068;2022-11-21T11:29:33;96620.09;;;6.70;100.00
3812;BME280;1921;49.368;11.068;2022-11-21T11:32:15;96586.91;;;6.59;100.00
3812;BME280;1921;49.368;11.068;2022-11-21T11:37:41;96600.09;;;6.64;100.00
3812;BME280;1921;49.368;11.068;2022-11-21T11:40:33;96603.34;;;6.81;100.00
3812;BME280;1921;49.368;11.068;2022-11-21T11:49:40;96565.63;;;7.08;100.00
3812;BME280;1921;49.368;11.068;2022-11-21T11:55:20;96563.06;;;8.99;97.78
3812;BME280;1921;49.368;11.068;2022-11-21T11:57:51;96546.66;;;9.47;94.84
3812;BME280;1921;49.368;11.068;2022-11-21T12:00:44;96550.72;;;9.82;91.70
3812;BME280;1921;49.368;11.068;2022-11-21T12:03:29;96596.47;;;10.24;88.97
3812;BME280;1921;49.368;11.068;2022-11-21T12:06:20;96581.03;;;10.30;85.72
3812;BME280;1921;49.368;11.068;2022-11-21T12:08:57;96551.19;;;10.32;85.84
3812;BME280;1921;49.368;11.068;2022-11-21T12:24:00;96562.19;;;10.34;84.33
3812;BME280;1921;49.368;11.068;2022-11-21T12:26:49;96556.38;;;10.32;80.79
3812;BME280;1921;49.368;11.068;2022-11-21T12:32:36;96462.38;;;9.74;81.11
3812;BME280;1921;49.368;11.068;2022-11-21T12:58:01;96527.31;;;10.09;74.85
3812;BME280;1921;49.368;11.068;2022-11-21T13:00:44;96525.06;;;9.79;76.65
3812;BME280;1921;49.368;11.068;2022-11-21T13:06:02;96498.53;;;9.23;74.02
3812;BME280;1921;49.368;11.068;2022-11-21T13:08:33;96527.00;;;9.37;78.72
3812;BME280;1921;49.368;11.068;2022-11-21T13:20:29;96509.25;;;9.87;74.11
3812;BME280;1921;49.368;11.068;2022-11-21T13:23:00;96462.00;;;9.64;77.43
3812;BME280;1921;49.368;11.068;2022-11-21T13:30:55;96490.22;;;9.80;75.14
3812;BME280;1921;49.368;11.068;2022-11-21T13:33:45;96496.44;;;9.92;74.90
3812;BME280;1921;49.368;11.068;2022-11-21T13:36:34;96489.03;;;10.03;75.10
3812;BME280;1921;49.368;11.068;2022-11-21T13:47:30;96445.56;;;9.83;72.63
3812;BME280;1921;49.368;11.068;2022-11-21T13:50:28;96463.00;;;9.76;74.19
3812;BME280;1921;49.368;11.068;2022-11-21T14:08:26;96450.34;;;9.47;76.00
3812;BME280;1921;49.368;11.068;2022-11-21T14:10:54;96455.13;;;9.36;77.55
3812;BME280;1921;49.368;11.068;2022-11-21T14:13:37;96443.09;;;9.09;76.79
3812;BME280;1921;49.368;11.068;2022-11-21T14:16:18;96461.84;;;8.98;79.18
3812;BME280;1921;49.368;11.068;2022-11-21T14:18:48;96422.28;;;8.48;80.06
3812;BME280;1921;49.368;11.068;2022-11-21T14:21:23;96421.34;;;8.27;80.52
3812;BME280;1921;49.368;11.068;2022-11-21T14:23:54;96438.50;;;8.22;80.07
3812;BME280;1921;49.368;11.068;2022-11-21T14:26:21;96383.97;;;7.87;78.67
3812;BME280;1921;49.368;11.068;2022-11-21T14:28:50;96409.56;;;7.90;79.28
3812;BME280;1921;49.368;11.068;2022-11-21T14:31:16;96443.44;;;8.10;79.97
3812;BME280;1921;49.368;11.068;2022-11-21T14:33:44;96422.06;;;7.80;79.51
3812;BME280;1921;49.368;11.068;2022-11-21T14:36:26;96379.06;;;7.43;80.81
3812;BME280;1921;49.368;11.068;2022-11-21T14:38:59;96435.22;;;7.78;80.76
3812;BME280;1921;49.368;11.068;2022-11-21T14:51:57;96417.94;;;7.15;82.59
3812;BME280;1921;49.368;11.068;2022-11-21T14:54:32;96411.63;;;7.03;84.04
3812;BME280;1921;49.368;11.068;2022-11-21T14:57:05;96389.81;;;6.75;85.31
3812;BME280;1921;49.368;11.068;2022-11-21T14:59:39;96359.25;;;6.50;86.43
3812;BME280;1921;49.368;11.068;2022-11-21T15:02:26;96371.75;;;6.46;86.67
3812;BME280;1921;49.368;11.068;2022-11-21T15:04:56;96364.53;;;6.27;88.02
3812;BME280;1921;49.368;11.068;2022-11-21T15:07:27;96395.00;;;6.25;88.71
3812;BME280;1921;49.368;11.068;2022-11-21T15:09:53;96339.13;;;5.86;89.66
3812;BME280;1921;49.368;11.068;2022-11-21T15:12:29;96343.22;;;5.80;90.18
3812;BME280;1921;49.368;11.068;2022-11-21T15:15:18;96338.16;;;5.72;91.16
3812;BME280;1921;49.368;11.068;2022-11-21T15:17:57;96368.56;;;5.85;91.36
3812;BME280;1921;49.368;11.068;2022-11-21T15:20:24;96310.47;;;5.43;92.00
3812;BME280;1921;49.368;11.068;2022-11-21T15:22:58;96335.72;;;5.41;91.93
3812;BME280;1921;49.368;11.068;2022-11-21T15:25:45;96313.59;;;5.24;92.65
3812;BME280;1921;49.368;11.068;2022-11-21T15:28:16;96212.09;;;4.40;92.60
3812;BME280;1921;49.368;11.068;2022-11-21T15:30:43;96310.59;;;4.97;93.68
3812;BME280;1921;49.368;11.068;2022-11-21T15:33:18;96335.03;;;5.09;94.82
3812;BME280;1921;49.368;11.068;2022-11-21T15:35:56;96252.66;;;4.54;94.38
3812;BME280;1921;49.368;11.068;2022-11-21T15:43:40;96332.56;;;4.70;96.74
3812;BME280;1921;49.368;11.068;2022-11-21T15:46:30;96248.25;;;4.09;97.27
3812;BME280;1921;49.368;11.068;2022-11-21T15:48:57;96301.22;;;4.27;97.21